Time,TemperatureF,DewpointF,PressureIn,WindDirection,WindDirectionDegrees,WindSpeedMPH,WindSpeedGustMPH,Humidity,HourlyPrecipIn,Conditions,Clouds,dailyrainin,SoftwareType,DateUTC
2013-03-16 00:00:00,66.0,22.6,29.80,SW,225,0.4,0.4,19,0.00,,---,0.00,VWS V14.01,2013-03-16 07:00:00,
2013-03-16 00:05:00,66.0,22.6,29.80,SW,225,0.4,0.4,19,0.00,,---,0.00,VWS V14.01,2013-03-16 07:05:00,
2013-03-16 00:10:00,66.0,22.6,29.80,SW,225,0.4,0.4,19,0.00,,---,0.00,VWS V14.01,2013-03-16 07:10:00,
2013-03-16 00:15:00,65.3,22.0,29.80,SW,225,0.0,0.0,19,0.00,,---,0.00,VWS V14.01,2013-03-16 07:15:00,
2013-03-16 00:20:00,65.1,21.9,29.80,North,0,0.0,0.0,19,0.00,,---,0.00,VWS V14.01,2013-03-16 07:20:00,
2013-03-16 00:25:00,65.1,21.9,29.80,SW,225,0.0,0.0,19,0.00,,---,0.00,VWS V14.01,2013-03-16 07:25:00,
2013-03-16 00:30:00,63.5,20.5,29.80,SSW,202,7.8,7.8,19,0.00,,---,0.00,VWS V14.01,2013-03-16 07:30:00,
2013-03-16 00:35:00,62.2,19.5,29.80,SSW,202,0.0,0.0,19,0.00,,---,0.00,VWS V14.01,2013-03-16 07:35:00,
2013-03-16 00:40:00,62.2,19.5,29.80,SSW,202,0.0,0.0,19,0.00,,---,0.00,VWS V14.01,2013-03-16 07:40:00,
2013-03-16 00:45:00,61.7,19.0,29.80,SSW,202,3.8,3.8,19,0.00,,---,0.00,VWS V14.01,2013-03-16 07:45:00,
2013-03-16 00:50:00,62.0,19.3,29.79,SSW,202,2.6,2.6,19,0.00,,---,0.00,VWS V14.01,2013-03-16 07:50:00,
2013-03-16 00:55:00,62.2,19.5,29.80,SSW,202,8.0,8.0,19,0.00,,---,0.00,VWS V14.01,2013-03-16 07:55:00,
2013-03-16 01:00:00,61.5,18.9,29.80,SW,225,0.0,0.0,19,0.00,,---,0.00,VWS V14.01,2013-03-16 08:00:00,
2013-03-16 01:05:00,61.3,18.7,29.80,North,0,0.0,0.0,19,0.00,,---,0.00,VWS V14.01,2013-03-16 08:05:00,
2013-03-16 01:10:00,61.3,18.7,29.80,North,0,0.0,0.0,19,0.00,,---,0.00,VWS V14.01,2013-03-16 08:10:00,
2013-03-16 01:15:00,59.5,17.2,29.79,SW,225,0.0,0.0,19,0.00,,---,0.00,VWS V14.01,2013-03-16 08:15:00,
2013-03-16 01:20:00,59.1,16.9,29.79,SSW,202,0.0,0.0,19,0.00,,---,0.00,VWS V14.01,2013-03-16 08:20:00,
2013-03-16 01:25:00,59.0,16.8,29.79,SSW,202,0.0,0.0,19,0.00,,---,0.00,VWS V14.01,2013-03-16 08:25:00,
2013-03-16 01:30:00,58.4,16.3,29.79,SSW,202,0.0,0.0,19,0.00,,---,0.00,VWS V14.01,2013-03-16 08:30:00,
2013-03-16 01:35:00,58.1,16.1,29.79,SSW,202,0.0,0.0,19,0.00,,---,0.00,VWS V14.01,2013-03-16 08:35:00,
2013-03-16 01:40:00,58.2,16.2,29.78,SSW,202,0.0,0.0,19,0.00,,---,0.00,VWS V14.01,2013-03-16 08:40:00,
2013-03-16 01:45:00,59.0,16.8,29.78,ENE,68,33.1,33.1,19,0.00,,---,0.00,VWS V14.01,2013-03-16 08:45:00,
2013-03-16 01:50:00,59.9,17.6,29.78,SSW,202,4.4,4.4,19,0.00,,---,0.00,VWS V14.01,2013-03-16 08:50:00,
2013-03-16 01:55:00,61.5,18.9,29.77,SW,225,0.0,0.0,19,0.00,,---,0.00,VWS V14.01,2013-03-16 08:55:00,
2013-03-16 02:00:00,62.4,19.6,29.77,SW,225,0.0,0.0,19,0.00,,---,0.00,VWS V14.01,2013-03-16 09:00:00,
2013-03-16 02:05:00,62.4,19.6,29.77,SW,225,0.0,0.0,19,0.00,,---,0.00,VWS V14.01,2013-03-16 09:05:00,
2013-03-16 02:10:00,63.5,20.5,29.77,SW,225,6.7,6.7,19,0.00,,---,0.00,VWS V14.01,2013-03-16 09:10:00,
2013-03-16 02:15:00,63.6,20.6,29.78,North,0,0.0,0.0,19,0.00,,---,0.00,VWS V14.01,2013-03-16 09:15:00,
2013-03-16 02:20:00,62.0,19.3,29.79,North,0,9.3,9.3,19,0.00,,---,0.00,VWS V14.01,2013-03-16 09:20:00,
2013-03-16 02:25:00,60.2,17.8,29.80,North,0,6.7,6.7,19,0.00,,---,0.00,VWS V14.01,2013-03-16 09:25:00,
2013-03-16 02:30:00,58.6,16.5,29.80,North,0,0.0,0.0,19,0.00,,---,0.00,VWS V14.01,2013-03-16 09:30:00,
2013-03-16 02:35:00,57.9,15.9,29.80,North,0,4.0,4.0,19,0.00,,---,0.00,VWS V14.01,2013-03-16 09:35:00,
2013-03-16 02:40:00,57.5,15.6,29.79,SSW,202,1.7,1.7,19,0.00,,---,0.00,VWS V14.01,2013-03-16 09:40:00,
2013-03-16 02:45:00,57.9,15.9,29.79,SSW,202,6.9,6.9,19,0.00,,---,0.00,VWS V14.01,2013-03-16 09:45:00,
2013-03-16 02:50:00,58.6,16.5,29.79,SSW,202,7.3,7.3,19,0.00,,---,0.00,VWS V14.01,2013-03-16 09:50:00,
2013-03-16 02:55:00,59.7,17.4,29.79,SSW,202,4.4,4.4,19,0.00,,---,0.00,VWS V14.01,2013-03-16 09:55:00,
2013-03-16 03:00:00,60.2,17.8,29.79,SSW,202,5.3,5.3,19,0.00,,---,0.00,VWS V14.01,2013-03-16 10:00:00,
2013-03-16 03:05:00,60.8,18.3,29.78,SSW,202,5.3,5.3,19,0.00,,---,0.00,VWS V14.01,2013-03-16 10:05:00,
2013-03-16 03:10:00,60.9,18.4,29.79,SSW,202,0.0,0.0,19,0.00,,---,0.00,VWS V14.01,2013-03-16 10:10:00,
2013-03-16 03:15:00,61.1,18.5,29.79,SW,225,0.0,0.0,19,0.00,,---,0.00,VWS V14.01,2013-03-16 10:15:00,
2013-03-16 03:20:00,60.9,18.4,29.79,SW,225,0.0,0.0,19,0.00,,---,0.00,VWS V14.01,2013-03-16 10:20:00,
2013-03-16 03:25:00,60.6,18.1,29.79,SW,225,0.0,0.0,19,0.00,,---,0.00,VWS V14.01,2013-03-16 10:25:00,
2013-03-16 03:30:00,60.4,18.0,29.79,SW,225,0.0,0.0,19,0.00,,---,0.00,VWS V14.01,2013-03-16 10:30:00,
2013-03-16 03:35:00,60.4,18.0,29.79,SW,225,0.0,0.0,19,0.00,,---,0.00,VWS V14.01,2013-03-16 10:35:00,
2013-03-16 03:40:00,60.4,18.0,29.79,SW,225,0.0,0.0,19,0.00,,---,0.00,VWS V14.01,2013-03-16 10:40:00,
2013-03-16 03:45:00,60.4,18.0,29.79,SW,225,0.0,0.0,19,0.00,,---,0.00,VWS V14.01,2013-03-16 10:45:00,
2013-03-16 03:50:00,60.0,17.6,29.79,SW,225,0.0,0.0,19,0.00,,---,0.00,VWS V14.01,2013-03-16 10:50:00,
2013-03-16 03:55:00,59.7,17.4,29.79,SW,225,0.0,0.0,19,0.00,,---,0.00,VWS V14.01,2013-03-16 10:55:00,
2013-03-16 04:00:00,59.7,17.4,29.79,SW,225,0.0,0.0,19,0.00,,---,0.00,VWS V14.01,2013-03-16 11:00:00,
2013-03-16 04:05:00,59.7,17.4,29.79,SW,225,0.0,0.0,19,0.00,,---,0.00,VWS V14.01,2013-03-16 11:05:00,
2013-03-16 04:10:00,59.7,17.4,29.79,SW,225,0.0,0.0,19,0.00,,---,0.00,VWS V14.01,2013-03-16 11:10:00,
2013-03-16 04:15:00,60.0,17.6,29.79,SW,225,0.0,0.0,19,0.00,,---,0.00,VWS V14.01,2013-03-16 11:15:00,
2013-03-16 04:20:00,60.4,18.0,29.79,SW,225,0.0,0.0,19,0.00,,---,0.00,VWS V14.01,2013-03-16 11:20:00,
2013-03-16 04:24:00,60.4,18.0,29.79,SSW,202,0.0,0.0,19,0.00,,---,0.00,VWS V14.01,2013-03-16 11:24:00,
2013-03-16 04:29:00,60.2,17.8,29.79,SSW,202,0.0,0.0,19,0.00,,---,0.00,VWS V14.01,2013-03-16 11:29:00,
2013-03-16 04:34:00,60.2,17.8,29.79,SSW,202,0.0,0.0,19,0.00,,---,0.00,VWS V14.01,2013-03-16 11:34:00,
2013-03-16 04:39:00,59.9,17.6,29.79,SSW,202,0.0,0.0,19,0.00,,---,0.00,VWS V14.01,2013-03-16 11:39:00,
2013-03-16 04:44:00,59.7,17.4,29.79,SSW,202,0.0,0.0,19,0.00,,---,0.00,VWS V14.01,2013-03-16 11:44:00,
2013-03-16 04:49:00,59.1,16.9,29.79,SSW,202,0.0,0.0,19,0.00,,---,0.00,VWS V14.01,2013-03-16 11:49:00,
2013-03-16 04:54:00,58.4,16.3,29.79,SW,225,0.0,0.0,19,0.00,,---,0.00,VWS V14.01,2013-03-16 11:54:00,
2013-03-16 04:59:00,57.9,15.9,29.79,SW,225,0.0,0.0,19,0.00,,---,0.00,VWS V14.01,2013-03-16 11:59:00,
2013-03-16 05:04:00,57.9,15.9,29.79,SW,225,0.0,0.0,19,0.00,,---,0.00,VWS V14.01,2013-03-16 12:04:00,
2013-03-16 05:09:00,57.3,15.4,29.79,SW,225,0.0,0.0,19,0.00,,---,0.00,VWS V14.01,2013-03-16 12:09:00,
2013-03-16 05:14:00,57.2,15.3,29.79,SW,225,0.0,0.0,19,0.00,,---,0.00,VWS V14.01,2013-03-16 12:14:00,
2013-03-16 05:19:00,57.0,15.2,29.79,SW,225,0.0,0.0,19,0.00,,---,0.00,VWS V14.01,2013-03-16 12:19:00,
2013-03-16 05:24:00,56.8,15.0,29.79,SW,225,0.0,0.0,19,0.00,,---,0.00,VWS V14.01,2013-03-16 12:24:00,
2013-03-16 05:29:00,56.4,14.7,29.79,SSW,202,1.5,1.5,19,0.00,,---,0.00,VWS V14.01,2013-03-16 12:29:00,
2013-03-16 05:34:00,56.1,14.4,29.79,SSW,202,0.0,0.0,19,0.00,,---,0.00,VWS V14.01,2013-03-16 12:34:00,
2013-03-16 05:39:00,56.1,15.6,29.78,SSW,202,0.0,0.0,20,0.00,,---,0.00,VWS V14.01,2013-03-16 12:39:00,
2013-03-16 05:44:00,56.1,15.6,29.78,SSW,202,0.0,0.0,20,0.00,,---,0.00,VWS V14.01,2013-03-16 12:44:00,
2013-03-16 05:49:00,56.1,14.4,29.78,SSW,202,0.0,0.0,19,0.00,,---,0.00,VWS V14.01,2013-03-16 12:49:00,
2013-03-16 05:54:00,56.1,14.4,29.78,SSW,202,0.0,0.0,19,0.00,,---,0.00,VWS V14.01,2013-03-16 12:54:00,
2013-03-16 05:59:00,55.9,15.4,29.78,SSW,202,0.0,0.0,20,0.00,,---,0.00,VWS V14.01,2013-03-16 12:59:00,
2013-03-16 06:04:00,55.7,15.3,29.78,SSW,202,0.0,0.0,20,0.00,,---,0.00,VWS V14.01,2013-03-16 13:04:00,
2013-03-16 06:09:00,55.9,15.4,29.78,SSW,202,0.0,0.0,20,0.00,,---,0.00,VWS V14.01,2013-03-16 13:09:00,
2013-03-16 06:14:00,56.3,14.6,29.78,SSW,202,3.1,3.1,19,0.00,,---,0.00,VWS V14.01,2013-03-16 13:14:00,
2013-03-16 06:19:00,57.5,15.6,29.78,SSW,202,2.0,2.0,19,0.00,,---,0.00,VWS V14.01,2013-03-16 13:19:00,
2013-03-16 06:24:00,58.6,16.5,29.79,SSW,202,7.3,7.3,19,0.00,,---,0.00,VWS V14.01,2013-03-16 13:24:00,
2013-03-16 06:29:00,59.3,17.1,29.79,North,0,0.0,0.0,19,0.00,,---,0.00,VWS V14.01,2013-03-16 13:29:00,
2013-03-16 06:34:00,59.9,17.6,29.79,SSW,202,0.0,0.0,19,0.00,,---,0.00,VWS V14.01,2013-03-16 13:34:00,
2013-03-16 06:39:00,59.9,17.6,29.79,North,0,0.0,0.0,19,0.00,,---,0.00,VWS V14.01,2013-03-16 13:39:00,
2013-03-16 06:44:00,60.0,17.6,29.79,SSW,202,5.8,5.8,19,0.00,,---,0.00,VWS V14.01,2013-03-16 13:44:00,
2013-03-16 06:49:00,60.4,18.0,29.79,SSW,202,2.9,2.9,19,0.00,,---,0.00,VWS V14.01,2013-03-16 13:49:00,
2013-03-16 06:54:00,60.4,18.0,29.79,SW,225,0.0,0.0,19,0.00,,---,0.00,VWS V14.01,2013-03-16 13:54:00,
2013-03-16 06:59:00,60.4,18.0,29.79,North,0,0.0,0.0,19,0.00,,---,0.00,VWS V14.01,2013-03-16 13:59:00,
2013-03-16 07:04:00,60.2,17.8,29.80,SW,225,0.0,0.0,19,0.00,,---,0.00,VWS V14.01,2013-03-16 14:04:00,
2013-03-16 07:09:00,59.9,17.6,29.79,SSW,202,2.9,2.9,19,0.00,,---,0.00,VWS V14.01,2013-03-16 14:09:00,
2013-03-16 07:14:00,59.7,17.4,29.79,SW,225,7.3,7.3,19,0.00,,---,0.00,VWS V14.01,2013-03-16 14:14:00,
2013-03-16 07:19:00,59.9,17.6,29.79,SSW,202,0.0,0.0,19,0.00,,---,0.00,VWS V14.01,2013-03-16 14:19:00,
2013-03-16 07:24:00,59.7,17.4,29.80,SSW,202,6.4,6.4,19,0.00,,---,0.00,VWS V14.01,2013-03-16 14:24:00,
2013-03-16 07:29:00,59.7,17.4,29.80,SW,225,3.8,3.8,19,0.00,,---,0.00,VWS V14.01,2013-03-16 14:29:00,
2013-03-16 07:34:00,59.7,17.4,29.80,SSW,202,0.0,0.0,19,0.00,,---,0.00,VWS V14.01,2013-03-16 14:34:00,
2013-03-16 07:39:00,59.7,17.4,29.80,SW,225,2.0,2.0,19,0.00,,---,0.00,VWS V14.01,2013-03-16 14:39:00,
2013-03-16 07:44:00,59.7,17.4,29.80,SW,225,0.0,0.0,19,0.00,,---,0.00,VWS V14.01,2013-03-16 14:44:00,
2013-03-16 07:49:00,59.5,17.2,29.80,SW,225,0.0,0.0,19,0.00,,---,0.00,VWS V14.01,2013-03-16 14:49:00,
2013-03-16 07:54:00,59.1,16.9,29.80,SW,225,1.3,1.3,19,0.00,,---,0.00,VWS V14.01,2013-03-16 14:54:00,
2013-03-16 07:59:00,58.8,16.7,29.81,SW,225,0.0,0.0,19,0.00,,---,0.00,VWS V14.01,2013-03-16 14:59:00,
2013-03-16 08:04:00,58.6,16.5,29.81,SW,225,0.0,0.0,19,0.00,,---,0.00,VWS V14.01,2013-03-16 15:04:00,
2013-03-16 08:09:00,58.6,16.5,29.81,SW,225,0.0,0.0,19,0.00,,---,0.00,VWS V14.01,2013-03-16 15:09:00,
2013-03-16 08:14:00,58.4,16.3,29.81,SW,225,0.0,0.0,19,0.00,,---,0.00,VWS V14.01,2013-03-16 15:14:00,
2013-03-16 08:19:00,58.4,16.3,29.81,SW,225,0.0,0.0,19,0.00,,---,0.00,VWS V14.01,2013-03-16 15:19:00,
2013-03-16 08:24:00,58.1,16.1,29.81,SW,225,0.0,0.0,19,0.00,,---,0.00,VWS V14.01,2013-03-16 15:24:00,
2013-03-16 08:29:00,58.4,16.3,29.80,SW,225,0.0,0.0,19,0.00,,---,0.00,VWS V14.01,2013-03-16 15:29:00,
2013-03-16 08:34:00,58.4,16.3,29.80,SW,225,0.0,0.0,19,0.00,,---,0.00,VWS V14.01,2013-03-16 15:34:00,
2013-03-16 08:39:00,58.6,16.5,29.80,SW,225,0.0,0.0,19,0.00,,---,0.00,VWS V14.01,2013-03-16 15:39:00,
2013-03-16 08:44:00,58.6,16.5,29.80,North,0,0.0,0.0,19,0.00,,---,0.00,VWS V14.01,2013-03-16 15:44:00,
2013-03-16 08:49:00,59.0,16.8,29.81,SW,225,0.0,0.0,19,0.00,,---,0.00,VWS V14.01,2013-03-16 15:49:00,
2013-03-16 08:54:00,59.1,16.9,29.81,SW,225,0.0,0.0,19,0.00,,---,0.00,VWS V14.01,2013-03-16 15:54:00,
2013-03-16 09:04:00,59.3,17.1,29.80,SW,225,0.0,0.0,19,0.00,,---,0.00,VWS V14.01,2013-03-16 16:04:00,
2013-03-16 09:09:00,59.5,17.2,29.81,SW,225,0.0,0.0,19,0.00,,---,0.00,VWS V14.01,2013-03-16 16:09:00,
2013-03-16 09:14:00,59.7,17.4,29.81,SW,225,0.0,0.0,19,0.00,,---,0.00,VWS V14.01,2013-03-16 16:14:00,
2013-03-16 09:19:00,60.0,17.6,29.81,SW,225,0.0,0.0,19,0.00,,---,0.00,VWS V14.01,2013-03-16 16:19:00,
2013-03-16 09:24:00,60.0,17.6,29.82,SW,225,0.0,0.0,19,0.00,,---,0.00,VWS V14.01,2013-03-16 16:24:00,
2013-03-16 09:29:00,60.2,17.8,29.82,North,0,0.0,0.0,19,0.00,,---,0.00,VWS V14.01,2013-03-16 16:29:00,
2013-03-16 09:34:00,60.2,17.8,29.81,North,0,0.0,0.0,19,0.00,,---,0.00,VWS V14.01,2013-03-16 16:34:00,
2013-03-16 09:39:00,60.6,18.1,29.82,North,0,0.0,0.0,19,0.00,,---,0.00,VWS V14.01,2013-03-16 16:39:00,
2013-03-16 09:44:00,60.8,18.3,29.82,North,0,0.0,0.0,19,0.00,,---,0.00,VWS V14.01,2013-03-16 16:44:00,
2013-03-16 09:49:00,61.1,18.5,29.82,North,0,0.0,0.0,19,0.00,,---,0.00,VWS V14.01,2013-03-16 16:49:00,
2013-03-16 09:54:00,61.3,18.7,29.82,North,0,0.0,0.0,19,0.00,,---,0.00,VWS V14.01,2013-03-16 16:54:00,
2013-03-16 09:59:00,61.7,19.0,29.82,North,0,0.0,0.0,19,0.00,,---,0.00,VWS V14.01,2013-03-16 16:59:00,
2013-03-16 10:04:00,61.8,19.1,29.82,North,0,0.0,0.0,19,0.00,,---,0.00,VWS V14.01,2013-03-16 17:04:00,
2013-03-16 10:09:00,62.0,19.3,29.82,North,0,0.0,0.0,19,0.00,,---,0.00,VWS V14.01,2013-03-16 17:09:00,
2013-03-16 10:14:00,62.2,19.5,29.82,North,0,0.0,0.0,19,0.00,,---,0.00,VWS V14.01,2013-03-16 17:14:00,
2013-03-16 10:19:00,62.4,19.6,29.82,North,0,0.0,0.0,19,0.00,,---,0.00,VWS V14.01,2013-03-16 17:19:00,
2013-03-16 10:24:00,62.7,19.9,29.82,SW,225,4.9,4.9,19,0.00,,---,0.00,VWS V14.01,2013-03-16 17:24:00,
2013-03-16 10:29:00,62.7,19.9,29.82,SW,225,0.0,0.0,19,0.00,,---,0.00,VWS V14.01,2013-03-16 17:29:00,
2013-03-16 10:34:00,62.9,20.0,29.82,SW,225,0.0,0.0,19,0.00,,---,0.00,VWS V14.01,2013-03-16 17:34:00,
2013-03-16 10:39:00,63.3,20.4,29.83,North,0,0.0,0.0,19,0.00,,---,0.00,VWS V14.01,2013-03-16 17:39:00,
2013-03-16 10:44:00,63.5,20.5,29.83,SSW,202,0.0,0.0,19,0.00,,---,0.00,VWS V14.01,2013-03-16 17:44:00,
2013-03-16 10:49:00,63.5,20.5,29.82,SW,225,0.0,0.0,19,0.00,,---,0.00,VWS V14.01,2013-03-16 17:49:00,
2013-03-16 10:54:00,63.8,20.8,29.82,SW,225,0.0,0.0,19,0.00,,---,0.00,VWS V14.01,2013-03-16 17:54:00,
2013-03-16 10:59:00,64.2,21.1,29.82,SSW,202,3.3,3.3,19,0.00,,---,0.00,VWS V14.01,2013-03-16 17:59:00,
2013-03-16 11:04:00,64.5,21.4,29.82,SW,225,2.4,2.4,19,0.00,,---,0.00,VWS V14.01,2013-03-16 18:04:00,
2013-03-16 11:09:00,64.9,21.7,29.82,SW,225,2.9,2.9,19,0.00,,---,0.00,VWS V14.01,2013-03-16 18:09:00,
2013-03-16 11:14:00,65.1,21.9,29.82,SW,225,0.0,0.0,19,0.00,,---,0.00,VWS V14.01,2013-03-16 18:14:00,
2013-03-16 11:19:00,65.3,22.0,29.81,North,0,0.8,0.8,19,0.00,,---,0.00,VWS V14.01,2013-03-16 18:19:00,
2013-03-16 11:24:00,65.8,22.4,29.80,North,0,0.0,0.0,19,0.00,,---,0.00,VWS V14.01,2013-03-16 18:24:00,
2013-03-16 11:29:00,66.0,22.6,29.80,SSW,202,1.5,1.5,19,0.00,,---,0.00,VWS V14.01,2013-03-16 18:29:00,
2013-03-16 11:34:00,66.5,23.0,29.80,North,0,0.0,0.0,19,0.00,,---,0.00,VWS V14.01,2013-03-16 18:34:00,
2013-03-16 11:39:00,67.1,23.5,29.81,NNW,338,0.0,0.0,19,0.00,,---,0.00,VWS V14.01,2013-03-16 18:39:00,
2013-03-16 11:44:00,67.8,24.1,29.81,NNW,338,2.6,2.6,19,0.00,,---,0.00,VWS V14.01,2013-03-16 18:44:00,
2013-03-16 11:49:00,68.1,24.3,29.81,North,0,7.8,7.8,19,0.00,,---,0.00,VWS V14.01,2013-03-16 18:49:00,
2013-03-16 11:54:00,68.5,24.6,29.81,SSW,202,2.0,2.0,19,0.00,,---,0.00,VWS V14.01,2013-03-16 18:54:00,
2013-03-16 11:59:00,68.5,24.6,29.81,NNW,338,4.6,4.6,19,0.00,,---,0.00,VWS V14.01,2013-03-16 18:59:00,
2013-03-16 12:04:00,68.9,25.0,29.81,North,0,6.7,6.7,19,0.00,,---,0.00,VWS V14.01,2013-03-16 19:04:00,
2013-03-16 12:09:00,69.2,25.2,29.80,North,0,5.3,5.3,19,0.00,,---,0.00,VWS V14.01,2013-03-16 19:09:00,
2013-03-16 12:14:00,69.4,25.4,29.80,North,0,3.3,3.3,19,0.00,,---,0.00,VWS V14.01,2013-03-16 19:14:00,
2013-03-16 12:19:00,69.9,25.8,29.80,North,0,4.4,4.4,19,0.00,,---,0.00,VWS V14.01,2013-03-16 19:19:00,
2013-03-16 12:24:00,69.9,25.8,29.80,North,0,0.0,0.0,19,0.00,,---,0.00,VWS V14.01,2013-03-16 19:24:00,
2013-03-16 12:29:00,70.1,26.0,29.80,North,0,3.1,3.1,19,0.00,,---,0.00,VWS V14.01,2013-03-16 19:29:00,
2013-03-16 12:34:00,70.1,26.0,29.80,SW,225,0.0,0.0,19,0.00,,---,0.00,VWS V14.01,2013-03-16 19:34:00,
2013-03-16 12:39:00,70.5,26.3,29.80,North,0,4.0,4.0,19,0.00,,---,0.00,VWS V14.01,2013-03-16 19:39:00,
2013-03-16 12:44:00,70.8,26.5,29.80,North,0,0.0,0.0,19,0.00,,---,0.00,VWS V14.01,2013-03-16 19:44:00,
2013-03-16 12:49:00,71.0,26.7,29.80,North,0,2.6,2.6,19,0.00,,---,0.00,VWS V14.01,2013-03-16 19:49:00,
2013-03-16 12:54:00,71.2,26.9,29.80,North,0,0.0,0.0,19,0.00,,---,0.00,VWS V14.01,2013-03-16 19:54:00,
2013-03-16 12:59:00,71.6,27.2,29.80,North,0,0.0,0.0,19,0.00,,---,0.00,VWS V14.01,2013-03-16 19:59:00,
2013-03-16 13:04:00,71.9,27.4,29.79,North,0,0.0,0.0,19,0.00,,---,0.00,VWS V14.01,2013-03-16 20:04:00,
2013-03-16 13:09:00,72.3,27.8,29.79,North,0,5.3,5.3,19,0.00,,---,0.00,VWS V14.01,2013-03-16 20:09:00,
2013-03-16 13:14:00,72.5,27.9,29.79,NNW,338,1.3,1.3,19,0.00,,---,0.00,VWS V14.01,2013-03-16 20:14:00,
2013-03-16 13:19:00,72.8,28.2,29.79,NNW,338,4.0,4.0,19,0.00,,---,0.00,VWS V14.01,2013-03-16 20:19:00,
2013-03-16 13:24:00,73.0,28.3,29.79,SSW,202,1.7,1.7,19,0.00,,---,0.00,VWS V14.01,2013-03-16 20:24:00,
2013-03-16 13:29:00,73.4,28.7,29.78,North,0,2.4,2.4,19,0.00,,---,0.00,VWS V14.01,2013-03-16 20:29:00,
2013-03-16 13:34:00,73.7,28.9,29.78,NNW,338,2.6,2.6,19,0.00,,---,0.00,VWS V14.01,2013-03-16 20:34:00,
2013-03-16 13:39:00,73.9,29.1,29.79,North,0,0.0,0.0,19,0.00,,---,0.00,VWS V14.01,2013-03-16 20:39:00,
2013-03-16 13:44:00,74.3,29.4,29.78,North,0,0.0,0.0,19,0.00,,---,0.00,VWS V14.01,2013-03-16 20:44:00,
2013-03-16 13:49:00,74.3,29.4,29.78,SSW,202,2.2,2.2,19,0.00,,---,0.00,VWS V14.01,2013-03-16 20:49:00,
2013-03-16 13:54:00,74.6,29.7,29.77,SW,225,0.0,0.0,19,0.00,,---,0.00,VWS V14.01,2013-03-16 20:54:00,
2013-03-16 13:59:00,74.8,29.8,29.77,North,0,4.4,4.4,19,0.00,,---,0.00,VWS V14.01,2013-03-16 20:59:00,
2013-03-16 14:04:00,75.5,30.4,29.77,SW,225,1.7,1.7,19,0.00,,---,0.00,VWS V14.01,2013-03-16 21:04:00,
2013-03-16 14:09:00,75.5,30.4,29.77,SSW,202,4.6,4.6,19,0.00,,---,0.00,VWS V14.01,2013-03-16 21:09:00,
2013-03-16 14:14:00,75.9,30.7,29.76,SW,225,6.0,6.0,19,0.00,,---,0.00,VWS V14.01,2013-03-16 21:14:00,
2013-03-16 14:19:00,76.1,30.9,29.76,North,0,0.0,0.0,19,0.00,,---,0.00,VWS V14.01,2013-03-16 21:19:00,
2013-03-16 14:24:00,76.4,31.1,29.76,WNW,292,6.9,6.9,19,0.00,,---,0.00,VWS V14.01,2013-03-16 21:24:00,
2013-03-16 14:29:00,76.6,31.3,29.75,WNW,292,4.4,4.4,19,0.00,,---,0.00,VWS V14.01,2013-03-16 21:29:00,
2013-03-16 14:34:00,76.6,31.3,29.75,NNW,338,2.2,2.2,19,0.00,,---,0.00,VWS V14.01,2013-03-16 21:34:00,
2013-03-16 14:39:00,76.6,31.3,29.75,NNW,338,6.0,6.0,19,0.00,,---,0.00,VWS V14.01,2013-03-16 21:39:00,
2013-03-16 14:44:00,77.1,31.7,29.74,North,0,1.5,1.5,19,0.00,,---,0.00,VWS V14.01,2013-03-16 21:44:00,
2013-03-16 14:49:00,77.3,31.9,29.74,WNW,292,0.0,0.0,19,0.00,,---,0.00,VWS V14.01,2013-03-16 21:49:00,
2013-03-16 14:54:00,77.9,32.4,29.74,WNW,292,0.0,0.0,19,0.00,,---,0.00,VWS V14.01,2013-03-16 21:54:00,
2013-03-16 14:59:00,78.4,32.8,29.74,NW,315,0.0,0.0,19,0.00,,---,0.00,VWS V14.01,2013-03-16 21:59:00,
2013-03-16 15:04:00,78.6,32.9,29.74,West,270,0.0,0.0,19,0.00,,---,0.00,VWS V14.01,2013-03-16 22:04:00,
2013-03-16 15:09:00,78.9,33.2,29.74,WNW,292,4.9,4.9,19,0.00,,---,0.00,VWS V14.01,2013-03-16 22:09:00,
2013-03-16 15:14:00,78.9,33.2,29.74,SW,225,4.4,4.4,19,0.00,,---,0.00,VWS V14.01,2013-03-16 22:14:00,
2013-03-16 15:19:00,79.1,33.3,29.74,WNW,292,7.3,7.3,19,0.00,,---,0.00,VWS V14.01,2013-03-16 22:19:00,
2013-03-16 15:24:00,78.9,33.2,29.73,WNW,292,4.6,4.6,19,0.00,,---,0.00,VWS V14.01,2013-03-16 22:24:00,
2013-03-16 15:29:00,79.5,33.7,29.73,West,270,4.2,4.2,19,0.00,,---,0.00,VWS V14.01,2013-03-16 22:29:00,
2013-03-16 15:34:00,79.3,33.5,29.73,NW,315,4.0,4.0,19,0.00,,---,0.00,VWS V14.01,2013-03-16 22:34:00,
2013-03-16 15:39:00,79.5,33.7,29.73,WNW,292,0.0,0.0,19,0.00,,---,0.00,VWS V14.01,2013-03-16 22:39:00,
2013-03-16 15:44:00,79.8,33.9,29.73,WNW,292,8.0,8.0,19,0.00,,---,0.00,VWS V14.01,2013-03-16 22:44:00,
2013-03-16 15:49:00,79.7,33.8,29.73,WNW,292,8.0,8.0,19,0.00,,---,0.00,VWS V14.01,2013-03-16 22:49:00,
2013-03-16 15:54:00,79.7,33.8,29.73,NW,315,8.2,8.2,19,0.00,,---,0.00,VWS V14.01,2013-03-16 22:54:00,
2013-03-16 15:59:00,79.7,33.8,29.72,NW,315,8.9,8.9,19,0.00,,---,0.00,VWS V14.01,2013-03-16 22:59:00,
2013-03-16 16:04:00,79.5,33.7,29.72,WNW,292,3.3,3.3,19,0.00,,---,0.00,VWS V14.01,2013-03-16 23:04:00,
2013-03-16 16:09:00,79.7,33.8,29.73,West,270,1.5,1.5,19,0.00,,---,0.00,VWS V14.01,2013-03-16 23:09:00,
2013-03-16 16:14:00,79.7,33.8,29.73,NW,315,9.3,9.3,19,0.00,,---,0.00,VWS V14.01,2013-03-16 23:14:00,
2013-03-16 16:19:00,78.9,33.2,29.73,NW,315,8.7,8.7,19,0.00,,---,0.00,VWS V14.01,2013-03-16 23:19:00,
2013-03-16 16:24:00,78.9,33.2,29.73,WNW,292,7.6,7.6,19,0.00,,---,0.00,VWS V14.01,2013-03-16 23:24:00,
2013-03-16 16:29:00,78.9,33.2,29.73,WNW,292,9.6,9.6,19,0.00,,---,0.00,VWS V14.01,2013-03-16 23:29:00,
2013-03-16 16:34:00,78.8,33.1,29.73,West,270,4.4,4.4,19,0.00,,---,0.00,VWS V14.01,2013-03-16 23:34:00,
2013-03-16 16:39:00,78.9,33.2,29.73,WNW,292,5.1,5.1,19,0.00,,---,0.00,VWS V14.01,2013-03-16 23:39:00,
2013-03-16 16:44:00,78.4,32.8,29.73,WNW,292,8.7,8.7,19,0.00,,---,0.00,VWS V14.01,2013-03-16 23:44:00,
2013-03-16 16:49:00,78.4,32.8,29.73,WNW,292,8.9,8.9,19,0.00,,---,0.00,VWS V14.01,2013-03-16 23:49:00,
2013-03-16 16:54:00,78.4,32.8,29.73,WNW,292,6.4,6.4,19,0.00,,---,0.00,VWS V14.01,2013-03-16 23:54:00,
2013-03-16 16:59:00,78.2,32.6,29.73,WNW,292,6.9,6.9,19,0.00,,---,0.00,VWS V14.01,2013-03-16 23:59:00,
2013-03-16 17:04:00,77.9,32.4,29.73,SSW,202,10.2,10.2,19,0.00,,---,0.00,VWS V14.01,2013-03-17 00:04:00,
2013-03-16 17:09:00,77.7,32.2,29.73,WNW,292,10.5,10.5,19,0.00,,---,0.00,VWS V14.01,2013-03-17 00:09:00,
2013-03-16 17:14:00,77.5,32.0,29.73,West,270,3.5,3.5,19,0.00,,---,0.00,VWS V14.01,2013-03-17 00:14:00,
2013-03-16 17:19:00,77.7,32.2,29.73,WNW,292,7.3,7.3,19,0.00,,---,0.00,VWS V14.01,2013-03-17 00:19:00,
2013-03-16 17:24:00,77.5,32.0,29.74,West,270,11.4,11.4,19,0.00,,---,0.00,VWS V14.01,2013-03-17 00:24:00,
2013-03-16 17:29:00,76.6,31.3,29.74,WNW,292,8.9,8.9,19,0.00,,---,0.00,VWS V14.01,2013-03-17 00:29:00,
2013-03-16 17:34:00,75.9,30.7,29.74,West,270,8.2,8.2,19,0.00,,---,0.00,VWS V14.01,2013-03-17 00:34:00,
2013-03-16 17:40:00,75.5,30.4,29.75,WNW,292,8.5,8.5,19,0.00,,---,0.00,VWS V14.01,2013-03-17 00:40:00,
2013-03-16 17:45:00,75.3,30.2,29.75,WNW,292,7.8,7.8,19,0.00,,---,0.00,VWS V14.01,2013-03-17 00:45:00,
2013-03-16 17:50:00,74.8,29.8,29.75,West,270,3.5,3.5,19,0.00,,---,0.00,VWS V14.01,2013-03-17 00:50:00,
2013-03-16 17:55:00,74.8,29.8,29.75,WNW,292,7.6,7.6,19,0.00,,---,0.00,VWS V14.01,2013-03-17 00:55:00,
2013-03-16 18:00:00,74.6,29.7,29.75,WNW,292,6.2,6.2,19,0.00,,---,0.00,VWS V14.01,2013-03-17 01:00:00,
2013-03-16 18:05:00,74.3,29.4,29.75,WNW,292,7.6,7.6,19,0.00,,---,0.00,VWS V14.01,2013-03-17 01:05:00,
2013-03-16 18:10:00,74.1,29.2,29.75,WNW,292,7.1,7.1,19,0.00,,---,0.00,VWS V14.01,2013-03-17 01:10:00,
2013-03-16 18:15:00,73.7,28.9,29.75,WNW,292,9.1,9.1,19,0.00,,---,0.00,VWS V14.01,2013-03-17 01:15:00,
2013-03-16 18:20:00,73.0,28.3,29.76,WNW,292,7.6,7.6,19,0.00,,---,0.00,VWS V14.01,2013-03-17 01:20:00,
2013-03-16 18:25:00,72.8,28.2,29.75,North,0,8.5,8.5,19,0.00,,---,0.00,VWS V14.01,2013-03-17 01:25:00,
2013-03-16 18:30:00,72.3,27.8,29.76,SSW,202,5.8,5.8,19,0.00,,---,0.00,VWS V14.01,2013-03-17 01:30:00,
2013-03-16 18:35:00,71.9,27.4,29.76,SSW,202,4.6,4.6,19,0.00,,---,0.00,VWS V14.01,2013-03-17 01:35:00,
2013-03-16 18:40:00,71.2,26.9,29.76,SSW,202,8.9,8.9,19,0.00,,---,0.00,VWS V14.01,2013-03-17 01:40:00,
2013-03-16 18:45:00,70.8,26.5,29.75,SSW,202,4.9,4.9,19,0.00,,---,0.00,VWS V14.01,2013-03-17 01:45:00,
2013-03-16 18:50:00,70.3,26.1,29.75,SSW,202,8.2,8.2,19,0.00,,---,0.00,VWS V14.01,2013-03-17 01:50:00,
2013-03-16 18:55:00,69.9,25.8,29.75,SW,225,7.1,7.1,19,0.00,,---,0.00,VWS V14.01,2013-03-17 01:55:00,
2013-03-16 19:00:00,69.4,25.4,29.76,SW,225,5.5,5.5,19,0.00,,---,0.00,VWS V14.01,2013-03-17 02:00:00,
2013-03-16 19:05:00,69.0,25.1,29.76,SW,225,3.8,3.8,19,0.00,,---,0.00,VWS V14.01,2013-03-17 02:05:00,
2013-03-16 19:10:00,68.7,24.8,29.76,SSW,202,7.1,7.1,19,0.00,,---,0.00,VWS V14.01,2013-03-17 02:10:00,
2013-03-16 19:15:00,68.5,24.6,29.76,SSW,202,9.8,9.8,19,0.00,,---,0.00,VWS V14.01,2013-03-17 02:15:00,
2013-03-16 19:20:00,68.1,24.3,29.76,North,0,5.5,5.5,19,0.00,,---,0.00,VWS V14.01,2013-03-17 02:20:00,
2013-03-16 19:25:00,67.6,23.9,29.76,SSW,202,4.2,4.2,19,0.00,,---,0.00,VWS V14.01,2013-03-17 02:25:00,
2013-03-16 19:30:00,66.9,23.3,29.76,SSW,202,3.5,3.5,19,0.00,,---,0.00,VWS V14.01,2013-03-17 02:30:00,
2013-03-16 19:35:00,66.3,22.8,29.76,SSW,202,5.3,5.3,19,0.00,,---,0.00,VWS V14.01,2013-03-17 02:35:00,
2013-03-16 19:40:00,65.8,22.4,29.76,SSW,202,2.4,2.4,19,0.00,,---,0.00,VWS V14.01,2013-03-17 02:40:00,
2013-03-16 19:45:00,65.6,22.3,29.77,SSW,202,3.1,3.1,19,0.00,,---,0.00,VWS V14.01,2013-03-17 02:45:00,
2013-03-16 19:50:00,65.1,21.9,29.77,SSW,202,3.5,3.5,19,0.00,,---,0.00,VWS V14.01,2013-03-17 02:50:00,
2013-03-16 19:55:00,64.7,21.5,29.78,SSW,202,4.6,4.6,19,0.00,,---,0.00,VWS V14.01,2013-03-17 02:55:00,
2013-03-16 20:00:00,64.5,21.4,29.78,SSW,202,2.0,2.0,19,0.00,,---,0.00,VWS V14.01,2013-03-17 03:00:00,
2013-03-16 20:05:00,64.2,21.1,29.78,SSW,202,3.3,3.3,19,0.00,,---,0.00,VWS V14.01,2013-03-17 03:05:00,
2013-03-16 20:10:00,63.8,20.8,29.78,SW,225,8.9,8.9,19,0.00,,---,0.00,VWS V14.01,2013-03-17 03:10:00,
2013-03-16 20:15:00,63.5,20.5,29.79,SW,225,2.6,2.6,19,0.00,,---,0.00,VWS V14.01,2013-03-17 03:15:00,
2013-03-16 20:20:00,63.5,20.5,29.79,SSW,202,6.2,6.2,19,0.00,,---,0.00,VWS V14.01,2013-03-17 03:20:00,
2013-03-16 20:25:00,63.1,20.2,29.79,SSW,202,6.4,6.4,19,0.00,,---,0.00,VWS V14.01,2013-03-17 03:25:00,
2013-03-16 20:30:00,63.1,20.2,29.79,SW,225,5.8,5.8,19,0.00,,---,0.00,VWS V14.01,2013-03-17 03:30:00,
2013-03-16 20:35:00,62.9,20.0,29.79,SSW,202,0.0,0.0,19,0.00,,---,0.00,VWS V14.01,2013-03-17 03:35:00,
2013-03-16 20:40:00,62.7,19.9,29.80,SW,225,8.0,8.0,19,0.00,,---,0.00,VWS V14.01,2013-03-17 03:40:00,
2013-03-16 20:45:00,62.0,19.3,29.80,SSW,202,7.8,7.8,19,0.00,,---,0.00,VWS V14.01,2013-03-17 03:45:00,
2013-03-16 20:50:00,61.8,19.1,29.80,North,0,6.7,6.7,19,0.00,,---,0.00,VWS V14.01,2013-03-17 03:50:00,
2013-03-16 20:55:00,61.7,19.0,29.80,SW,225,7.3,7.3,19,0.00,,---,0.00,VWS V14.01,2013-03-17 03:55:00,
2013-03-16 21:00:00,61.3,18.7,29.80,North,0,6.2,6.2,19,0.00,,---,0.00,VWS V14.01,2013-03-17 04:00:00,
2013-03-16 21:05:00,61.1,18.5,29.80,SW,225,9.1,9.1,19,0.00,,---,0.00,VWS V14.01,2013-03-17 04:05:00,
2013-03-16 21:10:00,60.9,18.4,29.80,SSW,202,4.2,4.2,19,0.00,,---,0.00,VWS V14.01,2013-03-17 04:10:00,
2013-03-16 21:15:00,60.6,18.1,29.80,SW,225,9.1,9.1,19,0.00,,---,0.00,VWS V14.01,2013-03-17 04:15:00,
2013-03-16 21:20:00,60.4,18.0,29.81,SW,225,9.1,9.1,19,0.00,,---,0.00,VWS V14.01,2013-03-17 04:20:00,
2013-03-16 21:25:00,60.2,17.8,29.80,SW,225,12.7,12.7,19,0.00,,---,0.00,VWS V14.01,2013-03-17 04:25:00,
2013-03-16 21:30:00,59.9,17.6,29.81,SSW,202,6.2,6.2,19,0.00,,---,0.00,VWS V14.01,2013-03-17 04:30:00,
2013-03-16 21:35:00,59.7,17.4,29.81,SSW,202,1.1,1.1,19,0.00,,---,0.00,VWS V14.01,2013-03-17 04:35:00,
2013-03-16 21:40:00,59.7,17.4,29.82,North,0,0.0,0.0,19,0.00,,---,0.00,VWS V14.01,2013-03-17 04:40:00,
2013-03-16 21:45:00,59.3,17.1,29.82,SW,225,0.0,0.0,19,0.00,,---,0.00,VWS V14.01,2013-03-17 04:45:00,
2013-03-16 21:50:00,59.3,20.5,29.82,SSW,202,8.5,8.5,22,0.00,,---,0.00,VWS V14.01,2013-03-17 04:50:00,
2013-03-16 21:55:00,59.3,20.5,29.82,South,180,9.8,9.8,22,0.00,,---,0.00,VWS V14.01,2013-03-17 04:55:00,
2013-03-16 22:00:00,59.3,20.5,29.82,SSW,202,6.4,6.4,22,0.00,,---,0.00,VWS V14.01,2013-03-17 05:00:00,
2013-03-16 22:05:00,59.3,17.1,29.82,SSW,202,2.6,2.6,19,0.00,,---,0.00,VWS V14.01,2013-03-17 05:05:00,
2013-03-16 22:10:00,59.1,16.9,29.82,SSW,202,6.7,6.7,19,0.00,,---,0.00,VWS V14.01,2013-03-17 05:10:00,
2013-03-16 22:15:00,59.3,21.5,29.81,SSW,202,5.8,5.8,23,0.00,,---,0.00,VWS V14.01,2013-03-17 05:15:00,
2013-03-16 22:20:00,59.1,20.3,29.81,North,0,5.1,5.1,22,0.00,,---,0.00,VWS V14.01,2013-03-17 05:20:00,
2013-03-16 22:25:00,59.1,20.3,29.81,SW,225,6.7,6.7,22,0.00,,---,0.00,VWS V14.01,2013-03-17 05:25:00,
2013-03-16 22:30:00,59.1,21.4,29.81,SW,225,9.1,9.1,23,0.00,,---,0.00,VWS V14.01,2013-03-17 05:30:00,
2013-03-16 22:35:00,58.8,20.1,29.81,SSW,202,8.0,8.0,22,0.00,,---,0.00,VWS V14.01,2013-03-17 05:35:00,
2013-03-16 22:40:00,58.8,20.1,29.81,SW,225,11.8,11.8,22,0.00,,---,0.00,VWS V14.01,2013-03-17 05:40:00,
2013-03-16 22:45:00,58.8,20.1,29.80,South,180,6.7,6.7,22,0.00,,---,0.00,VWS V14.01,2013-03-17 05:45:00,
2013-03-16 22:50:00,58.8,16.7,29.80,SSW,202,0.0,0.0,19,0.00,,---,0.00,VWS V14.01,2013-03-17 05:50:00,
2013-03-16 22:55:00,58.8,16.7,29.80,SSW,202,2.2,2.2,19,0.00,,---,0.00,VWS V14.01,2013-03-17 05:55:00,
2013-03-16 23:00:00,59.0,16.8,29.80,SSW,202,12.0,12.0,19,0.00,,---,0.00,VWS V14.01,2013-03-17 06:00:00,
2013-03-16 23:05:00,59.1,16.9,29.80,SW,225,9.8,9.8,19,0.00,,---,0.00,VWS V14.01,2013-03-17 06:05:00,
2013-03-16 23:10:00,59.3,17.1,29.79,SW,225,2.4,2.4,19,0.00,,---,0.00,VWS V14.01,2013-03-17 06:10:00,
2013-03-16 23:15:00,59.5,17.2,29.79,SW,225,9.6,9.6,19,0.00,,---,0.00,VWS V14.01,2013-03-17 06:15:00,
2013-03-16 23:20:00,59.9,17.6,29.79,SSW,202,4.6,4.6,19,0.00,,---,0.00,VWS V14.01,2013-03-17 06:20:00,
2013-03-16 23:25:00,60.2,17.8,29.79,SSW,202,3.5,3.5,19,0.00,,---,0.00,VWS V14.01,2013-03-17 06:25:00,
2013-03-16 23:30:00,60.2,17.8,29.79,SSW,202,0.0,0.0,19,0.00,,---,0.00,VWS V14.01,2013-03-17 06:30:00,
2013-03-16 23:35:00,60.2,17.8,29.78,SW,225,1.5,1.5,19,0.00,,---,0.00,VWS V14.01,2013-03-17 06:35:00,
2013-03-16 23:40:00,59.9,17.6,29.78,SSW,202,4.4,4.4,19,0.00,,---,0.00,VWS V14.01,2013-03-17 06:40:00,
2013-03-16 23:45:00,60.2,17.8,29.78,SSW,202,6.7,6.7,19,0.00,,---,0.00,VWS V14.01,2013-03-17 06:45:00,
2013-03-16 23:50:00,59.9,17.6,29.78,South,180,4.0,4.0,19,0.00,,---,0.00,VWS V14.01,2013-03-17 06:50:00,
2013-03-16 23:55:00,59.9,0.0,29.78,SSE,158,0.0,0.0,0,0.00,,---,0.00,VWS V14.01,2013-03-17 06:55:00,